createdAt,value
2019-03-08T00:02:18.718Z,99706.34
2019-03-08T00:04:48.239Z,99698.03
2019-03-08T00:07:18.021Z,99706.80
2019-03-08T00:09:47.285Z,99710.11
2019-03-08T00:12:16.698Z,99704.02
2019-03-08T00:14:46.377Z,99697.61
2019-03-08T00:17:15.676Z,99710.41
2019-03-08T00:19:44.887Z,99708.44
2019-03-08T00:22:14.576Z,99717.41
2019-03-08T00:24:44.256Z,99717.88
2019-03-08T00:27:13.532Z,99717.34
2019-03-08T00:29:43.286Z,99724.84
2019-03-08T00:32:12.500Z,99732.74
2019-03-08T00:34:41.761Z,99736.48
2019-03-08T00:37:11.504Z,99737.03
2019-03-08T00:39:40.758Z,99733.52
2019-03-08T00:42:10.016Z,99737.45
2019-03-08T00:44:39.711Z,99739.26
2019-03-08T00:47:08.973Z,99748.59
2019-03-08T00:49:38.186Z,99751.64
2019-03-08T00:52:08.032Z,99766.77
2019-03-08T00:54:37.248Z,99762.34
2019-03-08T00:57:06.514Z,99770.53
2019-03-08T00:59:36.411Z,99773.17
2019-03-08T01:02:05.639Z,99787.98
2019-03-08T01:04:35.829Z,99790.95
2019-03-08T01:07:05.806Z,99795.53
2019-03-08T01:09:35.101Z,99791.65
2019-03-08T01:12:07.819Z,99795.03
2019-03-08T01:14:37.511Z,99783.75
2019-03-08T01:17:06.766Z,99783.69
2019-03-08T01:19:36.237Z,99779.00
2019-03-08T01:22:10.196Z,99776.33
2019-03-08T01:24:39.431Z,99772.05
2019-03-08T01:27:08.648Z,99763.70
2019-03-08T01:29:38.356Z,99774.68
2019-03-08T01:32:07.759Z,99779.91
2019-03-08T01:34:37.059Z,99776.29
2019-03-08T01:37:06.736Z,99772.91
2019-03-08T01:39:35.946Z,99777.30
2019-03-08T01:42:08.030Z,99784.05
2019-03-08T01:44:37.659Z,99773.27
2019-03-08T01:47:07.014Z,99781.69
2019-03-08T01:49:36.605Z,99784.48
2019-03-08T01:52:08.788Z,99790.18
2019-03-08T01:54:38.106Z,99789.06
2019-03-08T01:57:07.363Z,99799.69
2019-03-08T01:59:36.794Z,99792.05
2019-03-08T02:02:06.529Z,99797.58
2019-03-08T02:04:35.858Z,99788.30
2019-03-08T02:07:06.054Z,99805.53
2019-03-08T02:09:37.789Z,99803.73
2019-03-08T02:12:07.680Z,99807.55
2019-03-08T02:14:36.966Z,99806.08
2019-03-08T02:17:06.502Z,99792.78
2019-03-08T02:19:35.771Z,99803.71
2019-03-08T02:22:06.352Z,99804.92
2019-03-08T02:24:36.045Z,99812.94
2019-03-08T02:27:06.073Z,99811.63
2019-03-08T02:29:36.978Z,99817.50
2019-03-08T02:32:06.730Z,99818.27
2019-03-08T02:34:35.947Z,99825.45
2019-03-08T02:37:05.986Z,99835.16
2019-03-08T02:39:38.851Z,99839.84
2019-03-08T02:42:08.894Z,99830.63
2019-03-08T02:44:38.847Z,99833.45
2019-03-08T02:47:08.512Z,99837.47
2019-03-08T02:49:37.799Z,99836.80
2019-03-08T02:52:07.471Z,99837.35
2019-03-08T02:54:37.216Z,99836.41
2019-03-08T02:57:06.588Z,99839.97
2019-03-08T02:59:36.018Z,99840.88
2019-03-08T03:02:06.560Z,99845.35
2019-03-08T03:04:35.769Z,99838.11
2019-03-08T03:07:05.192Z,99846.18
2019-03-08T03:09:36.214Z,99841.40
2019-03-08T03:12:08.479Z,99841.13
2019-03-08T03:14:37.973Z,99837.95
2019-03-08T03:17:07.217Z,99841.21
2019-03-08T03:19:36.437Z,99846.57
2019-03-08T03:22:07.291Z,99854.70
2019-03-08T03:24:36.722Z,99857.13
2019-03-08T03:27:06.092Z,99853.88
2019-03-08T03:29:35.757Z,99863.31
2019-03-08T03:32:06.755Z,99868.02
2019-03-08T03:34:36.036Z,99877.00
2019-03-08T03:37:05.336Z,99875.36
2019-03-08T03:39:34.571Z,99873.02
2019-03-08T03:42:05.049Z,99872.48
2019-03-08T03:44:34.337Z,99874.02
2019-03-08T03:47:04.239Z,99877.55
2019-03-08T03:49:33.472Z,99883.41
2019-03-08T03:52:04.864Z,99895.97
2019-03-08T03:54:34.437Z,99889.12
2019-03-08T03:57:03.998Z,99892.44
2019-03-08T03:59:33.495Z,99894.11
2019-03-08T04:02:06.453Z,99889.75
2019-03-08T04:04:35.678Z,99907.20
2019-03-08T04:07:05.041Z,99906.62
2019-03-08T04:09:34.732Z,99905.67
2019-03-08T04:12:09.081Z,99914.30
2019-03-08T04:14:38.370Z,99909.29
2019-03-08T04:17:07.983Z,99914.24
2019-03-08T04:19:37.194Z,99920.61
2019-03-08T04:22:09.339Z,99927.16
2019-03-08T04:24:39.139Z,99922.55
2019-03-08T04:27:08.364Z,99920.70
2019-03-08T04:29:38.898Z,99926.70
2019-03-08T04:32:08.452Z,99932.47
2019-03-08T04:34:37.681Z,99934.23
2019-03-08T04:37:07.225Z,99924.77
2019-03-08T04:39:36.930Z,99923.45
2019-03-08T04:42:06.201Z,99936.25
2019-03-08T04:44:35.454Z,99927.47
2019-03-08T04:47:05.192Z,99936.39
2019-03-08T04:49:34.477Z,99933.55
2019-03-08T04:52:04.795Z,99941.94
2019-03-08T04:54:34.376Z,99947.70
2019-03-08T04:57:03.673Z,99956.23
2019-03-08T04:59:33.355Z,99961.61
2019-03-08T05:02:06.012Z,99970.70
2019-03-08T05:04:35.243Z,99967.33
2019-03-08T05:07:04.547Z,99972.33
2019-03-08T05:09:34.197Z,99973.09
2019-03-08T05:12:06.272Z,99970.63
2019-03-08T05:14:36.412Z,99972.56
2019-03-08T05:17:05.659Z,99986.95
2019-03-08T05:19:35.059Z,99980.47
2019-03-08T05:22:07.668Z,99990.70
2019-03-08T05:24:36.896Z,99987.08
2019-03-08T05:27:06.129Z,99992.33
2019-03-08T05:29:35.827Z,99989.78
2019-03-08T05:32:09.356Z,99994.25
2019-03-08T05:34:39.171Z,99997.73
2019-03-08T05:37:09.145Z,100010.41
2019-03-08T05:39:38.368Z,100006.94
2019-03-08T05:42:08.028Z,100016.80
2019-03-08T05:44:37.698Z,100016.31
2019-03-08T05:47:06.971Z,100015.84
2019-03-08T05:49:36.284Z,100025.84
2019-03-08T05:52:08.899Z,100022.68
2019-03-08T05:54:38.185Z,100028.84
2019-03-08T05:57:07.421Z,100032.00
2019-03-08T05:59:37.177Z,100031.70
2019-03-08T06:02:09.235Z,100038.38
2019-03-08T06:04:38.469Z,100045.89
2019-03-08T06:07:08.233Z,100046.38
2019-03-08T06:09:37.545Z,100053.07
2019-03-08T06:12:06.819Z,100052.38
2019-03-08T06:14:36.061Z,100062.23
2019-03-08T06:17:05.563Z,100064.44
2019-03-08T06:19:35.250Z,100072.30
2019-03-08T06:22:07.468Z,100083.56
2019-03-08T06:24:36.882Z,100089.71
2019-03-08T06:27:06.859Z,100090.99
2019-03-08T06:29:36.150Z,100096.78
2019-03-08T06:32:06.084Z,100105.19
2019-03-08T06:34:35.760Z,100115.81
2019-03-08T06:37:05.035Z,100114.42
2019-03-08T06:39:34.242Z,100125.91
2019-03-08T06:42:06.361Z,100132.22
2019-03-08T06:44:35.648Z,100137.51
2019-03-08T06:47:04.919Z,100125.28
2019-03-08T06:49:34.654Z,100150.14
2019-03-08T06:52:04.665Z,100144.91
2019-03-08T06:54:33.905Z,100151.23
2019-03-08T06:57:03.630Z,100155.53
2019-03-08T06:59:37.502Z,100149.17
2019-03-08T07:02:06.798Z,100151.09
2019-03-08T07:04:36.553Z,100161.48
2019-03-08T07:07:05.828Z,100155.87
2019-03-08T07:09:35.236Z,100163.80
2019-03-08T07:12:06.148Z,100169.86
2019-03-08T07:14:35.479Z,100164.60
2019-03-08T07:17:04.700Z,100181.06
2019-03-08T07:19:40.786Z,100182.15
2019-03-08T07:22:32.843Z,100181.08
2019-03-08T07:25:13.986Z,100192.32
2019-03-08T07:28:20.139Z,100199.28
2019-03-08T07:31:08.724Z,100195.48
2019-03-08T07:33:56.682Z,100202.63
2019-03-08T07:36:51.465Z,100207.80
2019-03-08T07:39:35.487Z,100202.53
2019-03-08T07:42:23.716Z,100203.29
2019-03-08T07:45:10.376Z,100207.47
2019-03-08T07:47:52.729Z,100219.64
2019-03-08T07:50:40.942Z,100208.14
2019-03-08T07:53:35.848Z,100228.97
2019-03-08T07:56:27.196Z,100221.69
2019-03-08T07:59:08.321Z,100223.63
2019-03-08T08:01:49.885Z,100237.27
2019-03-08T08:04:37.271Z,100240.48
2019-03-08T08:07:19.159Z,100238.28
2019-03-08T08:09:59.402Z,100261.95
2019-03-08T08:12:42.040Z,100253.86
2019-03-08T08:15:45.623Z,100264.78
2019-03-08T08:18:39.306Z,100264.83
2019-03-08T08:21:17.362Z,100281.73
2019-03-08T08:24:03.497Z,100278.66
2019-03-08T08:26:51.652Z,100281.86
2019-03-08T08:29:46.050Z,100293.89
2019-03-08T08:32:49.501Z,100294.69
2019-03-08T08:35:43.441Z,100307.25
2019-03-08T08:38:23.863Z,100296.36
2019-03-08T08:41:04.108Z,100300.76
2019-03-08T08:43:49.993Z,100311.57
2019-03-08T08:46:38.257Z,100305.13
2019-03-08T08:49:36.176Z,100312.28
2019-03-08T08:52:32.460Z,100313.20
2019-03-08T08:55:23.923Z,100326.22
2019-03-08T08:58:27.174Z,100329.48
2019-03-08T09:01:09.748Z,100318.37
2019-03-08T09:04:07.007Z,100324.28
2019-03-08T09:06:54.110Z,100338.09
2019-03-08T09:09:30.417Z,100323.91
2019-03-08T09:12:05.996Z,100342.80
2019-03-08T09:14:47.969Z,100338.69
2019-03-08T09:17:26.510Z,100341.09
2019-03-08T09:20:17.801Z,100347.97
2019-03-08T09:23:13.196Z,100359.75
2019-03-08T09:25:54.371Z,100355.06
2019-03-08T09:28:41.227Z,100373.31
2019-03-08T09:31:38.461Z,100364.86
2019-03-08T09:34:32.719Z,100363.39
2019-03-08T09:37:23.757Z,100378.74
2019-03-08T09:40:30.585Z,100376.42
2019-03-08T09:46:03.745Z,100376.20
2019-03-08T09:48:50.315Z,100386.45
2019-03-08T09:51:47.868Z,100380.89
2019-03-08T09:54:27.274Z,100381.77
2019-03-08T09:57:21.855Z,100378.06
2019-03-08T10:00:12.864Z,100387.41
2019-03-08T10:03:10.432Z,100385.17
2019-03-08T10:06:06.776Z,100386.63
2019-03-08T10:08:51.085Z,100395.97
2019-03-08T10:11:39.720Z,100398.91
2019-03-08T10:14:30.716Z,100414.14
2019-03-08T10:17:05.748Z,100420.92
2019-03-08T10:19:45.994Z,100420.42
2019-03-08T10:22:34.050Z,100420.15
2019-03-08T10:25:23.522Z,100440.64
2019-03-08T10:28:16.046Z,100434.34
2019-03-08T10:31:08.335Z,100445.84
2019-03-08T10:34:05.619Z,100456.54
2019-03-08T10:36:52.494Z,100453.76
2019-03-08T10:39:31.497Z,100454.83
2019-03-08T10:42:12.398Z,100457.41
2019-03-08T10:44:52.224Z,100463.68
2019-03-08T10:47:40.507Z,100467.77
2019-03-08T10:50:41.743Z,100476.11
2019-03-08T10:53:31.989Z,100474.09
2019-03-08T10:56:30.088Z,100480.19
2019-03-08T10:59:11.803Z,100491.52
2019-03-08T11:01:59.122Z,100494.14
2019-03-08T11:04:45.803Z,100494.45
2019-03-08T11:07:23.829Z,100502.89
2019-03-08T11:10:30.380Z,100521.39
2019-03-08T11:13:17.345Z,100515.91
2019-03-08T11:16:06.671Z,100520.42
2019-03-08T11:19:08.519Z,100526.30
2019-03-08T11:22:03.145Z,100534.58
2019-03-08T11:24:52.751Z,100527.88
2019-03-08T11:27:40.486Z,100540.20
2019-03-08T11:30:22.497Z,100529.55
2019-03-08T11:33:09.406Z,100538.73
2019-03-08T11:38:31.033Z,100543.39
2019-03-08T11:41:18.268Z,100549.55
2019-03-08T11:43:56.342Z,100552.49
2019-03-08T11:46:47.853Z,100547.33
2019-03-08T11:49:27.643Z,100551.22
2019-03-08T11:52:13.688Z,100546.67
2019-03-08T11:55:20.251Z,100540.00
2019-03-08T11:58:06.970Z,100554.00
2019-03-08T12:00:53.806Z,100561.79
2019-03-08T12:03:45.263Z,100559.15
2019-03-08T12:06:39.713Z,100543.47
2019-03-08T12:09:35.277Z,100548.10
2019-03-08T12:12:22.907Z,100560.81
2019-03-08T12:15:14.600Z,100555.11
2019-03-08T12:18:08.641Z,100549.61
2019-03-08T12:20:44.326Z,100565.70
2019-03-08T12:23:24.470Z,100554.63
2019-03-08T12:26:11.913Z,100545.53
2019-03-08T12:29:09.339Z,100547.27
2019-03-08T12:31:45.349Z,100556.08
2019-03-08T12:34:31.951Z,100560.22
2019-03-08T12:37:09.908Z,100554.74
2019-03-08T12:40:01.543Z,100555.10
2019-03-08T12:42:48.201Z,100560.88
2019-03-08T12:45:35.989Z,100553.30
2019-03-08T12:48:26.509Z,100559.25
2019-03-08T12:51:13.064Z,100558.06
2019-03-08T12:53:59.967Z,100550.48
2019-03-08T12:56:55.399Z,100556.70
2019-03-08T12:59:50.081Z,100546.28
2019-03-08T13:02:47.695Z,100546.45
2019-03-08T13:05:34.373Z,100543.66
2019-03-08T13:08:36.716Z,100552.57
2019-03-08T13:11:06.094Z,100547.17
2019-03-08T13:13:35.858Z,100563.30
2019-03-08T13:16:09.024Z,100567.56
2019-03-08T13:18:39.050Z,100567.42
2019-03-08T13:21:08.677Z,100576.89
2019-03-08T13:23:38.313Z,100580.52
2019-03-08T13:26:08.525Z,100575.53
2019-03-08T13:28:37.855Z,100583.15
2019-03-08T13:31:07.334Z,100580.35
2019-03-08T13:33:37.144Z,100585.47
2019-03-08T13:36:06.462Z,100584.61
2019-03-08T13:38:35.846Z,100585.78
2019-03-08T13:41:05.469Z,100582.48
2019-03-08T13:43:34.726Z,100583.09
2019-03-08T13:46:07.283Z,100583.11
2019-03-08T13:48:37.137Z,100586.98
2019-03-08T13:51:06.416Z,100583.98
2019-03-08T13:53:38.604Z,100587.84
2019-03-08T13:56:08.659Z,100597.84
2019-03-08T14:01:28.775Z,100601.97
2019-03-08T14:03:58.770Z,100610.73
2019-03-08T14:06:28.696Z,100615.17
2019-03-08T14:08:58.407Z,100631.38
2019-03-08T14:11:27.750Z,100632.83
2019-03-08T14:13:57.207Z,100628.70
2019-03-08T14:16:32.092Z,100626.22
2019-03-08T14:19:01.844Z,100620.37
2019-03-08T14:21:32.362Z,100619.77
2019-03-08T14:24:03.227Z,100615.39
2019-03-08T14:26:32.718Z,100626.27
2019-03-08T14:29:02.014Z,100632.65
2019-03-08T14:31:54.232Z,100628.36
2019-03-08T14:34:24.650Z,100645.31
2019-03-08T14:36:54.364Z,100621.69
2019-03-08T14:39:23.769Z,100618.27
2019-03-08T14:42:10.925Z,100613.57
2019-03-08T14:45:11.632Z,100608.77
2019-03-08T14:47:46.510Z,100608.14
2019-03-08T14:50:16.037Z,100599.39
2019-03-08T14:52:45.916Z,100591.91
2019-03-08T14:55:19.123Z,100594.39
2019-03-08T14:57:48.016Z,100592.06
2019-03-08T15:00:25.224Z,100586.80
2019-03-08T15:02:53.622Z,100587.20
2019-03-08T15:05:23.050Z,100583.95
2019-03-08T15:07:52.339Z,100589.92
2019-03-08T15:10:22.063Z,100583.73
2019-03-08T15:12:53.098Z,100596.61
2019-03-08T15:15:22.715Z,100603.19
2019-03-08T15:17:53.516Z,100595.53
2019-03-08T15:20:23.617Z,100598.02
2019-03-08T15:22:52.899Z,100605.20
2019-03-08T15:25:22.727Z,100601.01
2019-03-08T15:27:52.155Z,100600.46
2019-03-08T15:30:24.421Z,100601.78
2019-03-08T15:32:54.157Z,100596.73
2019-03-08T15:35:24.391Z,100585.08
2019-03-08T15:37:53.857Z,100584.66
2019-03-08T15:40:24.002Z,100584.56
2019-03-08T15:42:53.414Z,100585.38
2019-03-08T15:45:23.205Z,100588.81
2019-03-08T15:47:53.418Z,100579.52
2019-03-08T15:50:23.607Z,100589.76
2019-03-08T15:52:53.825Z,100590.47
2019-03-08T15:55:24.709Z,100593.09
2019-03-08T15:57:54.736Z,100587.94
2019-03-08T16:00:26.324Z,100584.34
2019-03-08T16:02:56.658Z,100587.69
2019-03-08T16:05:28.188Z,100594.47
2019-03-08T16:08:01.671Z,100594.19
2019-03-08T16:10:30.440Z,100598.41
2019-03-08T16:13:02.703Z,100592.58
2019-03-08T16:15:32.027Z,100595.16
2019-03-08T16:18:03.419Z,100597.77
2019-03-08T16:20:33.076Z,100597.77
2019-03-08T16:23:06.665Z,100592.98
2019-03-08T16:25:34.660Z,100596.97
2019-03-08T16:28:07.066Z,100591.06
2019-03-08T16:30:38.114Z,100597.95
2019-03-08T16:33:22.145Z,100592.56
2019-03-08T16:35:59.505Z,100598.36
2019-03-08T16:38:37.994Z,100601.50
2019-03-08T16:41:16.492Z,100597.00
2019-03-08T16:44:14.219Z,100598.58
2019-03-08T16:47:14.642Z,100599.16
2019-03-08T16:50:03.975Z,100607.93
2019-03-08T16:52:52.315Z,100607.14
2019-03-08T16:55:53.971Z,100614.52
2019-03-08T16:58:57.414Z,100623.62
2019-03-08T17:01:49.416Z,100622.00
2019-03-08T17:04:25.607Z,100620.24
2019-03-08T17:08:07.129Z,100637.79
2019-03-08T17:10:54.223Z,100631.77
2019-03-08T17:13:42.959Z,100626.27
2019-03-08T17:16:34.468Z,100631.22
2019-03-08T17:19:23.287Z,100637.97
2019-03-08T17:22:11.864Z,100645.77
2019-03-08T17:25:00.793Z,100643.77
2019-03-08T17:27:52.276Z,100642.59
2019-03-08T17:30:58.266Z,100644.91
2019-03-08T17:33:46.673Z,100644.53
2019-03-08T17:36:34.071Z,100647.38
2019-03-08T17:39:26.270Z,100642.30
2019-03-08T17:42:04.734Z,100643.67
2019-03-08T17:44:53.418Z,100642.53
2019-03-08T17:47:29.314Z,100654.13
2019-03-08T17:50:16.437Z,100655.25
2019-03-08T17:53:03.306Z,100669.92
2019-03-08T17:55:51.823Z,100669.11
2019-03-08T17:58:47.955Z,100670.56
2019-03-08T18:01:26.177Z,100674.32
2019-03-08T18:04:03.468Z,100688.31
2019-03-08T18:06:46.922Z,100681.69
2019-03-08T18:09:24.032Z,100686.36
2019-03-08T18:12:15.667Z,100688.77
2019-03-08T18:15:04.922Z,100687.41
2019-03-08T18:17:52.504Z,100689.03
2019-03-08T18:21:01.043Z,100690.19
2019-03-08T18:23:50.660Z,100698.38
2019-03-08T18:26:39.868Z,100689.36
2019-03-08T18:29:33.485Z,100690.52
2019-03-08T18:32:17.087Z,100689.58
2019-03-08T18:35:06.230Z,100692.82
2019-03-08T18:37:58.647Z,100700.46
2019-03-08T18:40:59.702Z,100691.74
2019-03-08T18:43:50.077Z,100695.08
2019-03-08T18:46:38.807Z,100693.52
2019-03-08T18:49:18.029Z,100701.53
2019-03-08T18:51:59.034Z,100701.94
2019-03-08T18:54:39.288Z,100707.64
2019-03-08T18:57:31.200Z,100701.21
2019-03-08T19:00:35.202Z,100700.67
2019-03-08T19:03:32.839Z,100693.28
2019-03-08T19:06:13.319Z,100690.92
2019-03-08T19:08:52.866Z,100697.11
2019-03-08T19:11:39.994Z,100696.70
2019-03-08T19:14:20.710Z,100700.14
2019-03-08T19:17:01.757Z,100715.81
2019-03-08T19:19:49.538Z,100713.19
2019-03-08T19:22:40.953Z,100716.11
2019-03-08T19:25:29.952Z,100719.88
2019-03-08T19:28:21.768Z,100717.17
2019-03-08T19:31:10.695Z,100727.92
2019-03-08T19:33:47.928Z,100727.09
2019-03-08T19:36:42.450Z,100723.31
2019-03-08T19:39:34.747Z,100719.01
2019-03-08T19:42:25.735Z,100729.75
2019-03-08T19:45:16.044Z,100723.67
2019-03-08T19:48:13.715Z,100728.47
2019-03-08T19:50:53.884Z,100732.59
2019-03-08T19:53:41.440Z,100727.20
2019-03-08T19:56:22.591Z,100729.51
2019-03-08T19:58:59.557Z,100733.29
2019-03-08T20:01:41.499Z,100733.42
2019-03-08T20:04:36.130Z,100731.91
2019-03-08T20:07:28.964Z,100739.98
2019-03-08T20:10:16.027Z,100743.14
2019-03-08T20:12:59.647Z,100735.93
2019-03-08T20:15:51.421Z,100740.81
2019-03-08T20:18:41.740Z,100737.92
2019-03-08T20:21:28.772Z,100739.98
2019-03-08T20:24:18.239Z,100739.23
2019-03-08T20:27:13.028Z,100735.22
2019-03-08T20:30:08.118Z,100731.66
2019-03-08T20:32:55.264Z,100721.36
2019-03-08T20:35:56.185Z,100720.66
2019-03-08T20:38:44.504Z,100715.60
2019-03-08T20:41:25.479Z,100726.61
2019-03-08T20:44:04.352Z,100721.77
2019-03-08T20:46:48.306Z,100716.97
2019-03-08T20:49:18.352Z,100709.70
2019-03-08T20:51:48.850Z,100710.61
2019-03-08T20:54:18.843Z,100707.62
2019-03-08T20:56:48.795Z,100708.23
2019-03-08T20:59:18.934Z,100707.20
2019-03-08T21:01:48.832Z,100713.19
2019-03-08T21:04:18.717Z,100719.14
2019-03-08T21:06:51.768Z,100715.20
2019-03-08T21:09:21.884Z,100715.58
2019-03-08T21:11:53.076Z,100709.25
2019-03-08T21:14:24.343Z,100709.59
2019-03-08T21:16:56.048Z,100707.16
2019-03-08T21:19:48.015Z,100702.30
2019-03-08T21:22:37.205Z,100709.52
2019-03-08T21:25:08.451Z,100700.61
2019-03-08T21:27:40.704Z,100704.76
2019-03-08T21:30:13.518Z,100707.22
2019-03-08T21:32:43.234Z,100711.41
2019-03-08T21:35:16.255Z,100705.78
2019-03-08T21:37:46.472Z,100703.98
2019-03-08T21:40:17.613Z,100708.61
2019-03-08T21:42:47.170Z,100715.34
2019-03-08T21:45:17.091Z,100712.43
2019-03-08T21:47:50.248Z,100698.16
2019-03-08T21:50:19.938Z,100700.77
2019-03-08T21:52:50.808Z,100689.55
2019-03-08T21:55:20.890Z,100690.04
2019-03-08T21:57:50.475Z,100683.40
2019-03-08T22:00:21.515Z,100692.54
2019-03-08T22:02:51.441Z,100690.08
2019-03-08T22:05:26.873Z,100690.32
2019-03-08T22:07:56.548Z,100690.16
2019-03-08T22:10:46.400Z,100689.05
2019-03-08T22:13:16.592Z,100687.50
2019-03-08T22:15:46.189Z,100683.97
2019-03-08T22:18:15.970Z,100681.02
2019-03-08T22:20:46.043Z,100670.52
2019-03-08T22:23:15.359Z,100670.77
2019-03-08T22:25:44.727Z,100673.03
2019-03-08T22:28:14.544Z,100666.34
2019-03-08T22:30:43.825Z,100661.41
2019-03-08T22:33:13.315Z,100660.64
2019-03-08T22:35:45.018Z,100651.66
2019-03-08T22:38:14.361Z,100649.20
2019-03-08T22:40:43.690Z,100639.48
2019-03-08T22:43:13.363Z,100634.19
2019-03-08T22:45:42.656Z,100622.95
2019-03-08T22:48:12.275Z,100627.44
2019-03-08T22:50:42.414Z,100625.47
2019-03-08T22:53:11.744Z,100622.31
2019-03-08T22:55:44.184Z,100621.82
2019-03-08T22:58:13.475Z,100615.67
2019-03-08T23:01:09.306Z,100617.48
2019-03-08T23:03:38.717Z,100608.46
2019-03-08T23:06:08.555Z,100618.34
2019-03-08T23:08:37.876Z,100609.77
2019-03-08T23:11:07.549Z,100611.62
2019-03-08T23:13:37.271Z,100612.11
2019-03-08T23:16:06.661Z,100604.00
2019-03-08T23:18:35.985Z,100612.36
2019-03-08T23:21:05.664Z,100609.98
2019-03-08T23:23:35.105Z,100607.89
2019-03-08T23:26:07.387Z,100600.19
2019-03-08T23:28:45.258Z,100604.23
2019-03-08T23:31:30.728Z,100598.46
2019-03-08T23:34:00.429Z,100595.06
2019-03-08T23:36:29.937Z,100592.64
2019-03-08T23:38:59.175Z,100596.95
2019-03-08T23:41:28.896Z,100594.66
2019-03-08T23:43:58.290Z,100598.14
2019-03-08T23:46:27.999Z,100595.59
2019-03-08T23:48:57.770Z,100597.19
2019-03-08T23:51:27.159Z,100600.19
2019-03-08T23:53:57.386Z,100599.28
2019-03-08T23:56:27.253Z,100592.11
2019-03-08T23:58:56.541Z,100591.91
